Terminal Aerodrome Forecast
Issued by NWS

Home | Current Version | Previous Version | Text Only | Print | Product List | Glossary On
Versions: 1 2 3 4 5 6 7 8 9 10 11 12 13 14 15 16 17 18 19 20 21
272
FTUS41 KPBZ 052320
TAFAGC
TAF
KAGC 052320Z 0600/0624 VRB03KT P6SM BKN200
     FM061500 11012G18KT P6SM -RA OVC060
     FM061800 12010G22KT 5SM -RA OVC015=

USA.gov is the U.S. government's official web portal to all federal, state and local government web resources and services.